createdAt,value
2022-08-25T00:01:46.298Z,18.52
2022-08-25T00:04:16.877Z,18.48
2022-08-25T00:06:46.902Z,18.42
2022-08-25T00:09:18.809Z,18.42
2022-08-25T00:11:49.449Z,18.45
2022-08-25T00:14:22.029Z,18.49
2022-08-25T00:16:49.530Z,18.53
2022-08-25T00:19:21.319Z,18.56
2022-08-25T00:21:48.191Z,18.60
2022-08-25T00:24:19.822Z,18.63
2022-08-25T00:26:50.634Z,18.67
2022-08-25T00:29:19.283Z,18.69
2022-08-25T00:31:47.833Z,18.69
2022-08-25T00:34:18.959Z,18.69
2022-08-25T00:36:47.414Z,18.67
2022-08-25T00:39:14.564Z,18.65
2022-08-25T00:41:43.509Z,18.67
2022-08-25T00:44:13.248Z,18.68
2022-08-25T00:46:43.806Z,18.70
2022-08-25T00:49:25.115Z,18.70
2022-08-25T00:52:01.480Z,18.71
2022-08-25T00:54:33.977Z,18.70
2022-08-25T00:57:03.451Z,18.68
2022-08-25T00:59:30.499Z,18.68
2022-08-25T01:01:59.086Z,18.67
2022-08-25T01:04:26.273Z,18.65
2022-08-25T01:06:53.961Z,18.66
2022-08-25T01:09:21.546Z,18.66
2022-08-25T01:11:49.021Z,18.64
2022-08-25T01:14:19.293Z,18.63
2022-08-25T01:16:46.427Z,18.62
2022-08-25T01:19:17.864Z,18.64
2022-08-25T01:21:49.036Z,18.65
2022-08-25T01:24:34.447Z,18.67
2022-08-25T01:27:01.561Z,18.68
2022-08-25T01:29:30.179Z,18.67
2022-08-25T01:32:01.437Z,18.66
2022-08-25T01:34:32.204Z,18.63
2022-08-25T01:37:00.762Z,18.61
2022-08-25T01:39:30.251Z,18.63
2022-08-25T01:42:09.746Z,18.64
2022-08-25T01:44:40.137Z,18.69
2022-08-25T01:47:08.117Z,18.71
2022-08-25T01:49:35.884Z,18.72
2022-08-25T01:52:07.798Z,18.74
2022-08-25T01:54:34.663Z,18.77
2022-08-25T01:57:02.250Z,18.77
2022-08-25T01:59:29.113Z,18.77
2022-08-25T02:01:59.921Z,18.77
2022-08-25T02:04:32.333Z,18.78
2022-08-25T02:07:01.715Z,18.78
2022-08-25T02:09:28.942Z,18.76
2022-08-25T02:11:56.925Z,18.77
2022-08-25T02:14:24.205Z,18.78
2022-08-25T02:16:54.036Z,18.78
2022-08-25T02:19:23.456Z,18.78
2022-08-25T02:21:51.275Z,18.78
2022-08-25T02:24:18.186Z,18.77
2022-08-25T02:26:45.021Z,18.78
2022-08-25T02:29:12.040Z,18.77
2022-08-25T02:31:39.386Z,18.78
2022-08-25T02:34:08.035Z,18.80
2022-08-25T02:36:35.421Z,18.83
2022-08-25T02:39:02.555Z,18.84
2022-08-25T02:41:31.814Z,18.82
2022-08-25T02:44:00.140Z,18.82
2022-08-25T02:46:27.325Z,18.81
2022-08-25T02:48:54.355Z,18.79
2022-08-25T02:51:23.302Z,18.80
2022-08-25T02:53:50.549Z,18.79
2022-08-25T02:56:18.903Z,18.81
2022-08-25T02:58:46.832Z,18.82
2022-08-25T03:01:15.224Z,18.83
2022-08-25T03:03:44.547Z,18.82
2022-08-25T03:06:15.133Z,18.83
2022-08-25T03:08:42.414Z,18.82
2022-08-25T03:11:10.084Z,18.79
2022-08-25T03:13:37.969Z,18.76
2022-08-25T03:16:11.079Z,18.74
2022-08-25T03:18:41.758Z,18.67
2022-08-25T03:21:11.659Z,18.72
2022-08-25T03:23:40.148Z,18.72
2022-08-25T03:26:22.914Z,18.70
2022-08-25T03:28:49.863Z,18.69
2022-08-25T03:31:17.064Z,18.69
2022-08-25T03:33:43.921Z,18.68
2022-08-25T03:36:12.458Z,18.69
2022-08-25T03:38:39.959Z,18.70
2022-08-25T03:41:17.963Z,18.71
2022-08-25T03:43:44.850Z,18.70
2022-08-25T03:46:19.482Z,18.69
2022-08-25T03:48:47.151Z,18.70
2022-08-25T03:51:19.953Z,18.69
2022-08-25T03:53:47.001Z,18.68
2022-08-25T03:56:13.814Z,18.69
2022-08-25T03:58:40.603Z,18.70
2022-08-25T04:01:07.497Z,18.73
2022-08-25T04:03:34.375Z,18.76
2022-08-25T04:06:04.934Z,18.78
2022-08-25T04:08:32.027Z,18.79
2022-08-25T04:10:59.197Z,18.80
2022-08-25T04:13:26.102Z,18.83
2022-08-25T04:15:52.959Z,18.84
2022-08-25T04:18:19.946Z,18.89
2022-08-25T04:20:47.574Z,18.94
2022-08-25T04:23:14.514Z,18.99
2022-08-25T04:25:42.622Z,19.04
2022-08-25T04:28:10.326Z,19.09
2022-08-25T04:30:42.937Z,19.12
2022-08-25T04:33:09.745Z,19.17
2022-08-25T04:35:36.588Z,19.23
2022-08-25T04:38:05.322Z,19.28
2022-08-25T04:40:32.565Z,19.34
2022-08-25T04:42:59.548Z,19.42
2022-08-25T04:45:26.485Z,19.50
2022-08-25T04:47:55.132Z,19.58
2022-08-25T04:50:22.010Z,19.66
2022-08-25T04:52:49.580Z,19.73
2022-08-25T04:55:16.539Z,19.79
2022-08-25T04:57:43.485Z,19.87
2022-08-25T05:00:11.094Z,19.94
2022-08-25T05:02:37.870Z,20.02
2022-08-25T05:05:05.171Z,20.05
2022-08-25T05:07:31.993Z,20.10
2022-08-25T05:09:59.129Z,20.13
2022-08-25T05:12:25.932Z,20.16
2022-08-25T05:14:55.961Z,20.18
2022-08-25T05:17:22.923Z,20.20
2022-08-25T05:19:50.060Z,20.23
2022-08-25T05:22:16.835Z,20.25
2022-08-25T05:24:43.752Z,20.29
2022-08-25T05:27:10.637Z,20.32
2022-08-25T05:29:37.428Z,20.34
2022-08-25T05:32:04.700Z,20.38
2022-08-25T05:34:31.557Z,20.44
2022-08-25T05:37:00.269Z,20.54
2022-08-25T05:39:27.229Z,20.69
2022-08-25T05:41:54.010Z,20.86
2022-08-25T05:44:21.492Z,21.06
2022-08-25T05:46:48.880Z,21.23
2022-08-25T05:49:15.756Z,21.41
2022-08-25T05:51:42.577Z,21.57
2022-08-25T05:54:09.418Z,21.71
2022-08-25T05:56:36.403Z,21.81
2022-08-25T05:59:07.348Z,21.94
2022-08-25T06:01:51.553Z,22.10
2022-08-25T06:04:19.507Z,22.22
2022-08-25T06:06:47.012Z,22.36
2022-08-25T06:09:13.818Z,22.51
2022-08-25T06:11:41.561Z,22.68
2022-08-25T06:14:10.394Z,22.84
2022-08-25T06:16:39.190Z,23.02
2022-08-25T06:19:08.100Z,23.19
2022-08-25T06:21:35.176Z,23.34
2022-08-25T06:24:02.078Z,23.48
2022-08-25T06:26:28.960Z,23.65
2022-08-25T06:28:55.791Z,23.83
2022-08-25T06:31:23.994Z,24.00
2022-08-25T06:33:51.673Z,24.17
2022-08-25T06:36:19.450Z,24.35
2022-08-25T06:38:47.644Z,24.54
2022-08-25T06:41:14.732Z,24.68
2022-08-25T06:43:48.125Z,24.84
2022-08-25T06:46:21.611Z,25.01
2022-08-25T06:48:49.605Z,25.17
2022-08-25T06:51:19.404Z,25.35
2022-08-25T06:53:49.054Z,25.50
2022-08-25T06:56:18.658Z,25.67
2022-08-25T06:58:47.316Z,25.84
2022-08-25T07:01:20.597Z,26.05
2022-08-25T07:03:48.756Z,26.25
2022-08-25T07:06:19.933Z,26.41
2022-08-25T07:08:48.205Z,26.57
2022-08-25T07:11:16.313Z,26.73
2022-08-25T07:13:44.379Z,26.88
2022-08-25T07:16:11.590Z,27.03
2022-08-25T07:18:38.783Z,27.21
2022-08-25T07:21:08.837Z,27.28
2022-08-25T07:23:37.409Z,27.24
2022-08-25T07:26:36.893Z,27.33
2022-08-25T07:29:03.922Z,27.57
2022-08-25T07:31:31.719Z,27.79
2022-08-25T07:34:14.031Z,27.95
2022-08-25T07:36:40.840Z,28.14
2022-08-25T07:39:07.686Z,28.34
2022-08-25T07:41:40.745Z,28.54
2022-08-25T07:44:09.163Z,28.74
2022-08-25T07:46:36.576Z,28.86
2022-08-25T07:49:16.346Z,29.02
2022-08-25T07:52:05.564Z,29.17
2022-08-25T07:54:34.506Z,29.34
2022-08-25T07:57:03.733Z,29.52
2022-08-25T07:59:31.153Z,29.69
2022-08-25T08:02:08.295Z,29.96
2022-08-25T08:04:36.966Z,30.28
2022-08-25T08:07:04.748Z,30.61
2022-08-25T08:09:39.097Z,30.86
2022-08-25T08:12:06.932Z,31.11
2022-08-25T08:14:34.631Z,31.43
2022-08-25T08:17:06.874Z,31.88
2022-08-25T08:19:35.064Z,32.37
2022-08-25T08:22:03.634Z,32.75
2022-08-25T08:24:44.669Z,33.11
2022-08-25T08:27:19.092Z,33.57
2022-08-25T08:29:45.992Z,33.84
2022-08-25T08:32:13.586Z,33.93
2022-08-25T08:34:41.817Z,34.24
2022-08-25T08:37:11.037Z,34.68
2022-08-25T08:39:38.541Z,35.03
2022-08-25T08:42:38.036Z,35.29
2022-08-25T08:45:24.267Z,35.48
2022-08-25T08:47:56.234Z,35.82
2022-08-25T08:50:37.806Z,36.19
2022-08-25T08:53:11.777Z,36.54
2022-08-25T08:55:43.820Z,36.83
2022-08-25T08:58:19.727Z,37.15
2022-08-25T09:00:58.397Z,37.43
2022-08-25T09:03:30.428Z,37.59
2022-08-25T09:06:01.030Z,37.66
2022-08-25T09:08:30.834Z,37.82
2022-08-25T09:11:18.897Z,38.02
2022-08-25T09:14:17.189Z,38.25
2022-08-25T09:16:55.108Z,38.40
2022-08-25T09:19:41.811Z,38.53
2022-08-25T09:22:34.828Z,38.64
2022-08-25T09:25:08.291Z,38.71
2022-08-25T09:27:46.146Z,38.70
2022-08-25T09:30:17.299Z,38.71
2022-08-25T09:32:48.868Z,38.80
2022-08-25T09:35:26.280Z,38.76
2022-08-25T09:38:03.504Z,38.56
2022-08-25T09:40:35.884Z,38.33
2022-08-25T09:43:09.252Z,37.98
2022-08-25T09:45:37.838Z,37.66
2022-08-25T09:48:22.347Z,37.53
2022-08-25T09:50:52.145Z,37.39
2022-08-25T09:53:21.694Z,37.11
2022-08-25T09:56:00.286Z,36.79
2022-08-25T09:58:27.947Z,36.52
2022-08-25T10:01:06.770Z,36.22
2022-08-25T10:03:36.520Z,35.84
2022-08-25T10:06:20.213Z,35.72
2022-08-25T10:08:48.519Z,35.65
2022-08-25T10:11:33.477Z,35.62
2022-08-25T10:14:06.183Z,35.61
2022-08-25T10:16:35.588Z,35.52
2022-08-25T10:19:08.043Z,35.30
2022-08-25T10:21:38.408Z,35.17
2022-08-25T10:24:07.723Z,35.08
2022-08-25T10:27:01.514Z,35.02
2022-08-25T10:29:48.048Z,34.81
2022-08-25T10:32:18.759Z,34.65
2022-08-25T10:34:53.463Z,34.52
2022-08-25T10:37:42.356Z,34.35
2022-08-25T10:40:26.521Z,34.24
2022-08-25T10:43:03.482Z,34.14
2022-08-25T10:45:45.698Z,34.04
2022-08-25T10:48:15.523Z,34.02
2022-08-25T10:50:46.311Z,34.03
2022-08-25T10:53:25.120Z,34.05
2022-08-25T10:56:03.355Z,33.96
2022-08-25T10:58:59.886Z,33.79
2022-08-25T11:01:45.258Z,33.75
2022-08-25T11:04:20.514Z,33.66
2022-08-25T11:07:06.065Z,33.68
2022-08-25T11:09:40.207Z,33.76
2022-08-25T11:12:19.468Z,33.75
2022-08-25T11:14:57.284Z,33.66
2022-08-25T11:17:26.172Z,33.57
2022-08-25T11:19:59.675Z,33.55
2022-08-25T11:22:30.827Z,33.59
2022-08-25T11:25:29.528Z,33.54
2022-08-25T11:28:14.817Z,33.58
2022-08-25T11:30:42.296Z,33.73
2022-08-25T11:33:14.992Z,33.87
2022-08-25T11:35:45.229Z,33.95
2022-08-25T11:38:47.821Z,34.00
2022-08-25T11:41:22.813Z,34.23
2022-08-25T11:44:21.345Z,34.51
2022-08-25T11:47:06.752Z,34.67
2022-08-25T11:49:57.031Z,34.45
2022-08-25T11:52:51.108Z,34.04
2022-08-25T11:55:22.766Z,34.15
2022-08-25T11:57:53.941Z,34.32
2022-08-25T12:00:36.633Z,34.20
2022-08-25T12:03:34.849Z,33.97
2022-08-25T12:06:26.572Z,33.84
2022-08-25T12:09:03.847Z,33.61
2022-08-25T12:11:39.566Z,33.57
2022-08-25T12:14:18.212Z,33.94
2022-08-25T12:16:56.583Z,34.55
2022-08-25T12:19:39.765Z,35.13
2022-08-25T12:22:08.394Z,35.75
2022-08-25T12:24:47.546Z,36.25
2022-08-25T12:27:33.563Z,36.75
2022-08-25T12:30:15.591Z,37.13
2022-08-25T12:33:01.717Z,37.36
2022-08-25T12:35:32.307Z,37.59
2022-08-25T12:38:05.140Z,37.85
2022-08-25T12:40:43.868Z,38.20
2022-08-25T12:43:21.234Z,38.57
2022-08-25T12:45:54.925Z,38.86
2022-08-25T12:48:31.198Z,39.00
2022-08-25T12:51:07.390Z,39.25
2022-08-25T12:53:36.859Z,39.54
2022-08-25T12:56:06.959Z,39.80
2022-08-25T12:58:59.859Z,39.98
2022-08-25T13:01:54.704Z,40.03
2022-08-25T13:04:46.424Z,40.07
2022-08-25T13:07:29.812Z,40.25
2022-08-25T13:10:10.648Z,40.34
2022-08-25T13:12:48.291Z,40.29
2022-08-25T13:15:27.305Z,40.22
2022-08-25T13:17:54.126Z,40.08
2022-08-25T13:20:27.123Z,39.98
2022-08-25T13:22:59.706Z,39.94
2022-08-25T13:25:32.035Z,39.97
2022-08-25T13:28:03.512Z,39.97
2022-08-25T13:30:34.203Z,39.90
2022-08-25T13:33:20.041Z,39.75
2022-08-25T13:35:50.194Z,39.73
2022-08-25T13:38:20.043Z,39.72
2022-08-25T13:40:47.167Z,39.71
2022-08-25T13:43:15.208Z,39.74
2022-08-25T13:45:47.228Z,39.66
2022-08-25T13:48:31.450Z,39.78
2022-08-25T13:51:09.297Z,39.92
2022-08-25T13:53:38.818Z,40.09
2022-08-25T13:56:07.259Z,40.12
2022-08-25T13:58:44.458Z,39.93
2022-08-25T14:01:45.064Z,39.83
2022-08-25T14:04:22.053Z,39.89
2022-08-25T14:06:50.018Z,39.96
2022-08-25T14:09:18.751Z,39.97
2022-08-25T14:11:58.314Z,40.02
2022-08-25T14:14:25.786Z,39.94
2022-08-25T14:17:04.994Z,39.76
2022-08-25T14:19:47.658Z,39.50
2022-08-25T14:22:14.784Z,39.36
2022-08-25T14:24:41.737Z,39.13
2022-08-25T14:27:08.519Z,38.86
2022-08-25T14:29:41.203Z,38.40
2022-08-25T14:32:10.069Z,37.94
2022-08-25T14:34:39.670Z,37.52
2022-08-25T14:37:15.503Z,37.05
2022-08-25T14:39:44.075Z,36.61
2022-08-25T14:42:12.463Z,36.22
2022-08-25T14:44:39.554Z,35.84
2022-08-25T14:47:08.013Z,35.44
2022-08-25T14:49:40.834Z,35.08
2022-08-25T14:52:18.412Z,34.66
2022-08-25T14:54:45.366Z,34.24
2022-08-25T14:57:13.738Z,33.97
2022-08-25T14:59:43.151Z,33.69
2022-08-25T15:02:14.270Z,33.37
2022-08-25T15:04:51.964Z,33.09
2022-08-25T15:07:35.037Z,32.82
2022-08-25T15:10:02.128Z,32.59
2022-08-25T15:12:46.520Z,32.44
2022-08-25T15:15:14.741Z,32.24
2022-08-25T15:17:44.797Z,32.06
2022-08-25T15:20:12.317Z,31.89
2022-08-25T15:22:39.102Z,31.76
2022-08-25T15:25:08.946Z,31.60
2022-08-25T15:27:36.876Z,31.47
2022-08-25T15:30:04.756Z,31.35
2022-08-25T15:32:31.878Z,31.24
2022-08-25T15:34:59.550Z,31.13
2022-08-25T15:37:26.751Z,31.01
2022-08-25T15:39:54.529Z,30.89
2022-08-25T15:42:21.737Z,30.77
2022-08-25T15:44:53.308Z,30.64
2022-08-25T15:47:22.019Z,30.54
2022-08-25T15:49:48.824Z,30.44
2022-08-25T15:52:15.721Z,30.33
2022-08-25T15:54:42.679Z,30.24
2022-08-25T15:57:18.060Z,30.13
2022-08-25T15:59:53.197Z,30.01
2022-08-25T16:02:20.735Z,29.91
2022-08-25T16:04:47.685Z,29.79
2022-08-25T16:07:14.524Z,29.68
2022-08-25T16:09:41.973Z,29.57
2022-08-25T16:12:09.027Z,29.47
2022-08-25T16:14:38.200Z,29.36
2022-08-25T16:17:05.762Z,29.25
2022-08-25T16:19:34.051Z,29.14
2022-08-25T16:22:08.788Z,29.02
2022-08-25T16:24:40.911Z,28.91
2022-08-25T16:27:11.009Z,28.80
2022-08-25T16:29:40.613Z,28.71
2022-08-25T16:32:08.508Z,28.61
2022-08-25T16:34:36.222Z,28.51
2022-08-25T16:37:03.546Z,28.41
2022-08-25T16:39:31.896Z,28.31
2022-08-25T16:41:59.126Z,28.20
2022-08-25T16:44:26.091Z,28.11
2022-08-25T16:46:54.598Z,28.01
2022-08-25T16:49:24.412Z,27.91
2022-08-25T16:51:52.250Z,27.82
2022-08-25T16:54:42.171Z,27.72
2022-08-25T16:57:08.997Z,27.61
2022-08-25T16:59:35.804Z,27.51
2022-08-25T17:02:02.803Z,27.38
2022-08-25T17:04:32.603Z,27.25
2022-08-25T17:06:59.967Z,27.09
2022-08-25T17:09:29.790Z,26.93
2022-08-25T17:11:57.397Z,26.77
2022-08-25T17:14:24.442Z,26.60
2022-08-25T17:16:54.819Z,26.44
2022-08-25T17:19:23.790Z,26.27
2022-08-25T17:21:51.438Z,26.12
2022-08-25T17:24:18.521Z,25.94
2022-08-25T17:26:50.090Z,25.81
2022-08-25T17:29:18.264Z,25.68
2022-08-25T17:31:48.476Z,25.54
2022-08-25T17:34:16.886Z,25.37
2022-08-25T17:36:48.357Z,25.21
2022-08-25T17:39:18.453Z,25.03
2022-08-25T17:41:45.748Z,24.87
2022-08-25T17:44:13.784Z,24.73
2022-08-25T17:46:47.589Z,24.60
2022-08-25T17:49:15.932Z,24.46
2022-08-25T17:51:43.077Z,24.32
2022-08-25T17:54:10.985Z,24.17
2022-08-25T17:56:38.159Z,24.02
2022-08-25T17:59:05.989Z,23.86
2022-08-25T18:01:40.839Z,23.71
2022-08-25T18:04:17.900Z,23.56
2022-08-25T18:06:48.709Z,23.41
2022-08-25T18:09:16.579Z,23.31
2022-08-25T18:11:44.956Z,23.21
2022-08-25T18:14:12.249Z,23.11
2022-08-25T18:16:39.346Z,23.01
2022-08-25T18:19:09.687Z,22.91
2022-08-25T18:21:37.806Z,22.79
2022-08-25T18:24:05.906Z,22.69
2022-08-25T18:26:33.372Z,22.60
2022-08-25T18:29:00.382Z,22.50
2022-08-25T18:31:27.817Z,22.40
2022-08-25T18:33:54.955Z,22.30
2022-08-25T18:36:22.135Z,22.20
2022-08-25T18:39:05.450Z,22.12
2022-08-25T18:41:38.326Z,22.03
2022-08-25T18:44:05.562Z,21.95
2022-08-25T18:46:32.527Z,21.87
2022-08-25T18:49:00.752Z,21.79
2022-08-25T18:51:27.783Z,21.70
2022-08-25T18:54:01.097Z,21.63
2022-08-25T18:56:29.123Z,21.58
2022-08-25T18:58:57.777Z,21.51
2022-08-25T19:01:25.034Z,21.45
2022-08-25T19:03:52.050Z,21.38
2022-08-25T19:06:20.737Z,21.31
2022-08-25T19:08:48.946Z,21.26
2022-08-25T19:11:17.523Z,21.20
2022-08-25T19:13:50.112Z,21.15
2022-08-25T19:16:30.174Z,21.09
2022-08-25T19:18:58.413Z,20.99
2022-08-25T19:21:25.512Z,20.91
2022-08-25T19:23:53.342Z,20.83
2022-08-25T19:26:21.444Z,20.76
2022-08-25T19:28:49.470Z,20.72
2022-08-25T19:31:18.752Z,20.69
2022-08-25T19:33:47.842Z,20.64
2022-08-25T19:36:16.547Z,20.59
2022-08-25T19:38:44.634Z,20.54
2022-08-25T19:41:14.503Z,20.50
2022-08-25T19:43:55.692Z,20.47
2022-08-25T19:46:32.304Z,20.42
2022-08-25T19:49:07.143Z,20.39
2022-08-25T19:51:37.795Z,20.37
2022-08-25T19:54:05.947Z,20.36
2022-08-25T19:56:36.345Z,20.33
2022-08-25T19:59:04.033Z,20.30
2022-08-25T20:01:32.068Z,20.24
2022-08-25T20:03:59.057Z,20.18
2022-08-25T20:06:27.644Z,20.11
2022-08-25T20:08:58.899Z,20.04
2022-08-25T20:11:27.497Z,19.97
2022-08-25T20:13:54.629Z,19.91
2022-08-25T20:16:23.791Z,19.85
2022-08-25T20:18:51.379Z,19.79
2022-08-25T20:21:18.649Z,19.73
2022-08-25T20:24:01.019Z,19.67
2022-08-25T20:26:29.337Z,19.62
2022-08-25T20:28:57.433Z,19.57
2022-08-25T20:31:24.283Z,19.53
2022-08-25T20:33:51.795Z,19.50
2022-08-25T20:36:19.582Z,19.46
2022-08-25T20:38:46.498Z,19.41
2022-08-25T20:41:14.010Z,19.28
2022-08-25T20:43:42.182Z,19.19
2022-08-25T20:46:09.605Z,19.12
2022-08-25T20:48:38.370Z,19.04
2022-08-25T20:51:08.004Z,19.01
2022-08-25T20:53:38.237Z,18.92
2022-08-25T20:56:09.901Z,18.83
2022-08-25T20:58:38.268Z,18.75
2022-08-25T21:01:14.412Z,18.62
2022-08-25T21:03:44.566Z,18.56
2022-08-25T21:06:14.304Z,18.52
2022-08-25T21:08:47.031Z,18.48
2022-08-25T21:11:18.121Z,18.47
2022-08-25T21:13:45.972Z,18.46
2022-08-25T21:16:15.184Z,18.48
2022-08-25T21:18:47.997Z,18.48
2022-08-25T21:21:16.852Z,18.49
2022-08-25T21:23:48.426Z,18.51
2022-08-25T21:26:26.186Z,18.49
2022-08-25T21:28:53.746Z,18.49
2022-08-25T21:31:21.983Z,18.52
2022-08-25T21:33:53.153Z,18.54
2022-08-25T21:36:21.280Z,18.53
2022-08-25T21:38:48.218Z,18.48
2022-08-25T21:41:21.349Z,18.55
2022-08-25T21:43:49.708Z,18.50
2022-08-25T21:46:19.607Z,18.64
2022-08-25T21:48:46.903Z,18.62
2022-08-25T21:51:18.575Z,18.56
2022-08-25T21:53:46.728Z,18.52
2022-08-25T21:56:17.415Z,18.46
2022-08-25T21:58:49.140Z,18.39
2022-08-25T22:01:19.645Z,18.37
2022-08-25T22:03:47.433Z,18.37
2022-08-25T22:06:16.239Z,18.36
2022-08-25T22:08:43.369Z,18.38
2022-08-25T22:11:10.978Z,18.37
2022-08-25T22:13:41.190Z,18.34
2022-08-25T22:16:12.033Z,18.26
2022-08-25T22:18:39.917Z,18.22
2022-08-25T22:21:09.774Z,18.18
2022-08-25T22:23:44.038Z,18.14
2022-08-25T22:26:14.701Z,18.10
2022-08-25T22:28:46.557Z,18.04
2022-08-25T22:31:15.090Z,18.06
2022-08-25T22:33:51.664Z,18.08
2022-08-25T22:36:21.828Z,18.08
2022-08-25T22:38:49.007Z,18.08
2022-08-25T22:41:21.437Z,18.09
2022-08-25T22:43:51.122Z,18.11
2022-08-25T22:46:21.523Z,18.10
2022-08-25T22:48:51.550Z,18.07
2022-08-25T22:51:27.866Z,18.07
2022-08-25T22:53:54.885Z,18.07
2022-08-25T22:56:31.971Z,18.08
2022-08-25T22:59:02.699Z,18.07
2022-08-25T23:01:32.099Z,18.06
2022-08-25T23:04:00.921Z,18.05
2022-08-25T23:06:29.508Z,18.02
2022-08-25T23:08:56.862Z,18.01
2022-08-25T23:11:24.831Z,17.97
2022-08-25T23:13:55.351Z,17.93
2022-08-25T23:16:23.506Z,17.90
2022-08-25T23:18:52.158Z,17.86
2022-08-25T23:21:38.001Z,17.86
2022-08-25T23:24:10.724Z,17.86
2022-08-25T23:26:42.459Z,17.84
2022-08-25T23:29:17.720Z,17.79
2022-08-25T23:31:48.058Z,17.72
2022-08-25T23:34:16.972Z,17.66
2022-08-25T23:36:44.628Z,17.60
2022-08-25T23:39:12.349Z,17.55
2022-08-25T23:41:41.812Z,17.51
2022-08-25T23:44:09.278Z,17.46
2022-08-25T23:46:39.503Z,17.44
2022-08-25T23:49:08.250Z,17.40
2022-08-25T23:51:38.512Z,17.41
2022-08-25T23:54:09.264Z,17.34
2022-08-25T23:56:44.478Z,17.25
2022-08-25T23:59:14.432Z,17.23
